Time;durP1;ratioP1;P1;durP2;ratioP2;P2;SDS_P1;SDS_P2;PMS_P1;PMS_P2;Temp;Humidity;BMP_temperature;BMP_pressure;BME280_temperature;BME280_humidity;BME280_pressure;Samples;Min_cycle;Max_cycle;Signal;HPM_P1;HPM_P2
2021/05/22 00:02:09;;;;;;;5.68;2.28;;;;;;;;;;4896422;29;20032;-73
2021/05/22 00:04:35;;;;;;;6.72;2.20;;;;;;;;;;4896762;29;20033;-71
2021/05/22 00:07:01;;;;;;;5.47;2.50;;;;;;;;;;4896920;29;20044;-72
2021/05/22 00:09:27;;;;;;;4.55;2.30;;;;;;;;;;4896354;29;20021;-72
2021/05/22 00:11:53;;;;;;;3.58;2.03;;;;;;;;;;4879144;29;20036;-72
2021/05/22 00:14:19;;;;;;;2.75;2.00;;;;;;;;;;4896421;29;20032;-70
2021/05/22 00:16:45;;;;;;;4.45;2.30;;;;;;;;;;4896623;29;20052;-71
2021/05/22 00:19:11;;;;;;;7.95;2.10;;;;;;;;;;4896255;29;20053;-73
2021/05/22 00:21:37;;;;;;;4.63;2.17;;;;;;;;;;4896227;29;20131;-61
2021/05/22 00:24:03;;;;;;;4.00;2.00;;;;;;;;;;4896020;29;20123;-60
2021/05/22 00:26:29;;;;;;;3.47;2.20;;;;;;;;;;4895862;29;20092;-61
2021/05/22 00:28:55;;;;;;;2.92;2.20;;;;;;;;;;4895911;29;20556;-71
2021/05/22 00:31:21;;;;;;;4.75;2.10;;;;;;;;;;4895933;29;20109;-67
2021/05/22 00:33:48;;;;;;;7.20;2.10;;;;;;;;;;4896120;29;20099;-72
2021/05/22 00:36:14;;;;;;;3.65;2.10;;;;;;;;;;4895959;29;20077;-64
2021/05/22 00:38:40;;;;;;;3.97;2.28;;;;;;;;;;4896218;29;20544;-60
2021/05/22 00:41:06;;;;;;;3.00;2.22;;;;;;;;;;4895820;29;20377;-65
2021/05/22 00:43:32;;;;;;;2.42;1.98;;;;;;;;;;4895759;29;20084;-71
2021/05/22 00:45:58;;;;;;;3.78;2.20;;;;;;;;;;4896056;29;20040;-70
2021/05/22 00:48:24;;;;;;;5.70;2.20;;;;;;;;;;4895134;29;20032;-70
2021/05/22 00:50:51;;;;;;;5.25;2.00;;;;;;;;;;4895598;29;20104;-71
2021/05/22 00:53:17;;;;;;;7.60;2.28;;;;;;;;;;4895817;29;20036;-63
2021/05/22 00:55:43;;;;;;;6.68;2.03;;;;;;;;;;4895546;29;20024;-68
2021/05/22 00:58:09;;;;;;;3.60;2.00;;;;;;;;;;4896110;29;20127;-64
2021/05/22 01:00:46;;;;;;;4.40;2.00;;;;;;;;;;4895828;29;20029;-69
2021/05/22 01:03:18;;;;;;;4.90;2.00;;;;;;;;;;4896013;29;20084;-71
2021/05/22 01:05:44;;;;;;;;;;;;;;;;;;4896275;29;20087;-68
2021/05/22 01:08:14;;;;;;;5.60;2.10;;;;;;;;;;4895631;29;19958;-66
2021/05/22 01:10:41;;;;;;;6.75;1.92;;;;;;;;;;4895980;29;20415;-70
2021/05/22 01:13:08;;;;;;;4.90;2.53;;;;;;;;;;4880345;29;20401;-71
2021/05/22 01:15:34;;;;;;;3.83;2.28;;;;;;;;;;4897074;29;20040;-68
2021/05/22 01:18:01;;;;;;;5.28;2.30;;;;;;;;;;4896085;29;20036;-65
2021/05/22 01:20:27;;;;;;;4.93;2.30;;;;;;;;;;4895729;29;20088;-70
2021/05/22 01:22:56;;;;;;;5.30;2.55;;;;;;;;;;4895497;29;20035;-69
2021/05/22 01:25:42;;;;;;;6.80;2.38;;;;;;;;;;4895547;29;20028;-67
2021/05/22 01:28:10;;;;;;;3.65;2.00;;;;;;;;;;4892147;29;20028;-71
2021/05/22 01:30:36;;;;;;;3.88;1.90;;;;;;;;;;4891400;29;20025;-72
2021/05/22 01:33:03;;;;;;;5.85;2.28;;;;;;;;;;4892681;29;20039;-73
2021/05/22 01:35:30;;;;;;;4.28;2.05;;;;;;;;;;4893639;29;20029;-67
2021/05/22 01:37:56;;;;;;;4.53;2.20;;;;;;;;;;4891767;29;20039;-71
2021/05/22 01:40:22;;;;;;;3.85;2.00;;;;;;;;;;4895630;29;20029;-71
2021/05/22 01:42:48;;;;;;;4.82;2.05;;;;;;;;;;4895758;29;20040;-71
2021/05/22 01:45:16;;;;;;;5.72;2.03;;;;;;;;;;4893147;29;20056;-64
2021/05/22 01:47:43;;;;;;;3.53;2.20;;;;;;;;;;4889360;29;20041;-68
2021/05/22 01:50:10;;;;;;;4.75;1.90;;;;;;;;;;4891505;29;20047;-71
2021/05/22 01:52:37;;;;;;;5.45;2.08;;;;;;;;;;4895246;29;20103;-71
2021/05/22 01:55:04;;;;;;;4.00;1.95;;;;;;;;;;4895369;29;20032;-70
2021/05/22 01:57:34;;;;;;;4.10;2.00;;;;;;;;;;4895352;29;20032;-70
2021/05/22 02:00:01;;;;;;;3.85;2.00;;;;;;;;;;4895158;29;20028;-71
2021/05/22 02:02:27;;;;;;;3.60;1.90;;;;;;;;;;4895424;29;20025;-71
2021/05/22 02:04:55;;;;;;;4.13;1.85;;;;;;;;;;4895078;29;20397;-70
2021/05/22 02:07:22;;;;;;;4.50;2.20;;;;;;;;;;4878153;29;20033;-72
2021/05/22 02:09:49;;;;;;;5.45;2.15;;;;;;;;;;4895135;29;20028;-71
2021/05/22 02:12:15;;;;;;;3.58;1.83;;;;;;;;;;4895269;29;20397;-71
2021/05/22 02:14:42;;;;;;;3.85;1.83;;;;;;;;;;4894881;29;20103;-70
2021/05/22 02:17:10;;;;;;;4.28;2.20;;;;;;;;;;4895368;29;20489;-71
2021/05/22 02:19:37;;;;;;;2.85;1.65;;;;;;;;;;4895354;29;20064;-70
2021/05/22 02:22:06;;;;;;;3.80;2.00;;;;;;;;;;4895158;29;20029;-70
2021/05/22 02:24:32;;;;;;;4.95;1.98;;;;;;;;;;4895876;29;20044;-66
2021/05/22 02:26:59;;;;;;;5.00;1.85;;;;;;;;;;4898408;29;20437;-72
2021/05/22 02:29:27;;;;;;;6.90;1.80;;;;;;;;;;4898332;29;20025;-61
2021/05/22 02:31:53;;;;;;;3.42;1.98;;;;;;;;;;4898564;29;20024;-71
2021/05/22 02:34:23;;;;;;;2.95;1.95;;;;;;;;;;4898712;29;20514;-72
2021/05/22 02:36:50;;;;;;;3.05;1.90;;;;;;;;;;4898211;29;20507;-71
2021/05/22 02:39:17;;;;;;;5.00;1.80;;;;;;;;;;4898385;29;20120;-72
2021/05/22 02:41:44;;;;;;;4.45;1.80;;;;;;;;;;4898244;29;20040;-72
2021/05/22 02:44:10;;;;;;;3.83;1.83;;;;;;;;;;4898239;29;20032;-72
2021/05/22 02:46:40;;;;;;;4.90;1.83;;;;;;;;;;4898310;29;20039;-71
2021/05/22 02:49:07;;;;;;;4.70;3.00;;;;;;;;;;4898183;29;20025;-71
2021/05/22 02:51:34;;;;;;;5.38;2.40;;;;;;;;;;4897832;29;20106;-71
2021/05/22 02:54:01;;;;;;;5.93;2.28;;;;;;;;;;4898046;29;20283;-72
2021/05/22 02:56:27;;;;;;;4.18;1.90;;;;;;;;;;4897972;29;20025;-70
2021/05/22 02:58:54;;;;;;;4.35;1.77;;;;;;;;;;4897534;29;20056;-65
2021/05/22 03:01:20;;;;;;;5.10;1.90;;;;;;;;;;4897898;29;20040;-71
2021/05/22 03:03:47;;;;;;;7.28;2.00;;;;;;;;;;4897897;29;20029;-63
2021/05/22 03:06:13;;;;;;;3.50;1.70;;;;;;;;;;4897593;29;20044;-61
2021/05/22 03:08:44;;;;;;;5.60;2.05;;;;;;;;;;4897967;29;20028;-64
2021/05/22 03:11:10;;;;;;;3.63;1.73;;;;;;;;;;4897712;29;20481;-64
2021/05/22 03:13:37;;;;;;;4.00;1.60;;;;;;;;;;4897655;29;20112;-72
2021/05/22 03:16:03;;;;;;;5.18;1.70;;;;;;;;;;4897653;29;20824;-69
2021/05/22 03:18:29;;;;;;;4.95;1.60;;;;;;;;;;4897850;29;20400;-71
2021/05/22 03:20:55;;;;;;;6.50;1.80;;;;;;;;;;4897551;29;20037;-66
2021/05/22 03:23:21;;;;;;;4.82;1.80;;;;;;;;;;4897419;29;20532;-70
2021/05/22 03:25:47;;;;;;;6.95;1.70;;;;;;;;;;4897332;29;20373;-71
2021/05/22 03:28:13;;;;;;;4.57;1.45;;;;;;;;;;4880069;29;20047;-67
2021/05/22 03:30:39;;;;;;;6.75;1.70;;;;;;;;;;4897263;29;20074;-71
2021/05/22 03:33:05;;;;;;;3.38;1.80;;;;;;;;;;4897281;29;20033;-68
2021/05/22 03:35:32;;;;;;;5.32;1.75;;;;;;;;;;4880125;29;20430;-67
2021/05/22 03:37:58;;;;;;;5.53;2.15;;;;;;;;;;4897164;29;20028;-72
2021/05/22 03:40:24;;;;;;;5.32;1.75;;;;;;;;;;4897231;29;20028;-71
2021/05/22 03:42:50;;;;;;;4.80;1.85;;;;;;;;;;4897405;29;20064;-70
2021/05/22 03:45:16;;;;;;;5.20;2.10;;;;;;;;;;4897122;29;20039;-71
2021/05/22 03:47:42;;;;;;;4.53;2.53;;;;;;;;;;4897016;29;20164;-69
2021/05/22 03:50:08;;;;;;;6.13;2.33;;;;;;;;;;4896829;29;20060;-69
2021/05/22 03:52:34;;;;;;;4.90;2.22;;;;;;;;;;4896988;29;20104;-71
2021/05/22 03:55:00;;;;;;;3.88;2.13;;;;;;;;;;4897103;29;20028;-69
2021/05/22 03:57:26;;;;;;;4.40;2.08;;;;;;;;;;4896862;29;20029;-66
2021/05/22 03:59:54;;;;;;;4.10;2.15;;;;;;;;;;4896952;29;20040;-70
2021/05/22 04:02:20;;;;;;;4.07;2.15;;;;;;;;;;4896749;29;20024;-68
2021/05/22 04:04:46;;;;;;;4.65;2.17;;;;;;;;;;4896611;29;20032;-71
2021/05/22 04:07:12;;;;;;;3.33;2.20;;;;;;;;;;4896676;29;20116;-71
2021/05/22 04:09:38;;;;;;;4.32;2.55;;;;;;;;;;4896878;29;20052;-70
2021/05/22 04:12:04;;;;;;;4.78;2.15;;;;;;;;;;4896555;29;20081;-71
2021/05/22 04:14:30;;;;;;;6.55;2.22;;;;;;;;;;4896739;29;20037;-71
2021/05/22 04:16:57;;;;;;;6.15;2.33;;;;;;;;;;4896492;29;20400;-60
2021/05/22 04:19:23;;;;;;;3.08;1.90;;;;;;;;;;4896630;29;20445;-74
2021/05/22 04:21:49;;;;;;;4.43;2.40;;;;;;;;;;4896550;29;20032;-71
2021/05/22 04:24:15;;;;;;;6.57;2.45;;;;;;;;;;4896288;29;20099;-71
2021/05/22 04:26:41;;;;;;;4.40;2.13;;;;;;;;;;4879364;29;20390;-66
2021/05/22 04:29:07;;;;;;;4.10;2.25;;;;;;;;;;4896262;29;20397;-69
2021/05/22 04:31:33;;;;;;;6.38;2.53;;;;;;;;;;4896316;29;20556;-70
2021/05/22 04:33:59;;;;;;;5.07;1.90;;;;;;;;;;4896258;29;20043;-69
2021/05/22 04:36:25;;;;;;;9.55;2.90;;;;;;;;;;4896412;29;20040;-72
2021/05/22 04:38:52;;;;;;;4.60;2.25;;;;;;;;;;4896103;29;20107;-69
2021/05/22 04:41:18;;;;;;;5.35;2.67;;;;;;;;;;4896093;29;20393;-70
2021/05/22 04:43:44;;;;;;;6.20;2.42;;;;;;;;;;4896179;29;20362;-69
2021/05/22 04:46:10;;;;;;;6.70;2.28;;;;;;;;;;4896108;29;20604;-69
2021/05/22 04:48:36;;;;;;;7.15;2.53;;;;;;;;;;4895891;29;20055;-72
2021/05/22 04:51:03;;;;;;;5.20;2.42;;;;;;;;;;4895688;29;20045;-66
2021/05/22 04:53:29;;;;;;;6.78;2.50;;;;;;;;;;4895859;29;20481;-68
2021/05/22 04:55:55;;;;;;;3.67;2.03;;;;;;;;;;4896057;29;20597;-68
2021/05/22 04:58:21;;;;;;;3.47;2.30;;;;;;;;;;4894781;29;20072;-67
2021/05/22 05:00:47;;;;;;;5.68;2.00;;;;;;;;;;4895811;29;20036;-67
2021/05/22 05:03:13;;;;;;;6.78;2.20;;;;;;;;;;4895066;29;20035;-69
2021/05/22 05:05:39;;;;;;;5.47;2.30;;;;;;;;;;4895187;29;20037;-68
2021/05/22 05:08:05;;;;;;;7.72;2.10;;;;;;;;;;4895763;29;20477;-66
2021/05/22 05:10:31;;;;;;;11.05;2.13;;;;;;;;;;4895046;29;20065;-70
2021/05/22 05:12:57;;;;;;;8.38;2.92;;;;;;;;;;4894967;29;20033;-74
2021/05/22 05:15:23;;;;;;;7.45;2.28;;;;;;;;;;4891566;29;20017;-69
2021/05/22 05:17:49;;;;;;;4.93;2.10;;;;;;;;;;4895602;29;20064;-66
2021/05/22 05:20:16;;;;;;;5.25;2.17;;;;;;;;;;4895437;29;20033;-65
2021/05/22 05:22:42;;;;;;;5.03;2.53;;;;;;;;;;4895858;29;20043;-67
2021/05/22 05:25:08;;;;;;;5.07;1.88;;;;;;;;;;4895833;29;20103;-67
2021/05/22 05:27:34;;;;;;;5.38;2.25;;;;;;;;;;4895867;29;20404;-61
2021/05/22 05:30:00;;;;;;;9.57;2.38;;;;;;;;;;4895585;29;20447;-61
2021/05/22 05:32:27;;;;;;;5.43;2.10;;;;;;;;;;4894354;29;20035;-60
2021/05/22 05:34:53;;;;;;;4.60;2.20;;;;;;;;;;4895681;29;20032;-61
2021/05/22 05:37:19;;;;;;;6.15;2.28;;;;;;;;;;4895455;29;20078;-68
2021/05/22 05:39:45;;;;;;;8.48;2.50;;;;;;;;;;4895440;29;20064;-63
2021/05/22 05:42:11;;;;;;;10.30;2.47;;;;;;;;;;4895471;29;20056;-72
2021/05/22 05:44:37;;;;;;;7.15;2.35;;;;;;;;;;4893063;29;20033;-71
2021/05/22 05:47:03;;;;;;;6.40;2.80;;;;;;;;;;4885093;29;20044;-71
2021/05/22 05:49:29;;;;;;;10.75;2.33;;;;;;;;;;4885268;29;20354;-72
2021/05/22 05:51:56;;;;;;;5.97;2.22;;;;;;;;;;4885012;29;20044;-65
2021/05/22 05:54:22;;;;;;;8.48;2.28;;;;;;;;;;4893207;29;20032;-69
2021/05/22 05:56:48;;;;;;;8.35;2.80;;;;;;;;;;4894867;29;20516;-66
2021/05/22 05:59:14;;;;;;;9.38;2.65;;;;;;;;;;4895985;29;20775;-70
2021/05/22 06:01:40;;;;;;;6.43;2.92;;;;;;;;;;4899038;29;20385;-73
2021/05/22 06:04:07;;;;;;;8.73;3.80;;;;;;;;;;4899142;29;20477;-70
2021/05/22 06:06:33;;;;;;;6.57;2.50;;;;;;;;;;4898531;29;20032;-69
2021/05/22 06:08:59;;;;;;;8.20;3.05;;;;;;;;;;4894364;29;20055;-71
2021/05/22 06:11:29;;;;;;;10.20;4.05;;;;;;;;;;4894757;29;20389;-71
2021/05/22 06:13:55;;;;;;;7.35;2.38;;;;;;;;;;4896038;29;20076;-71
2021/05/22 06:16:33;;;;;;;7.32;2.92;;;;;;;;;;4895408;29;20056;-72
2021/05/22 06:19:00;;;;;;;10.05;2.60;;;;;;;;;;4896545;29;20031;-68
2021/05/22 06:21:26;;;;;;;7.65;2.22;;;;;;;;;;4898569;29;20040;-68
2021/05/22 06:23:52;;;;;;;5.38;2.30;;;;;;;;;;4898285;29;20041;-69
2021/05/22 06:26:18;;;;;;;9.30;2.60;;;;;;;;;;4898368;29;20143;-70
2021/05/22 06:28:44;;;;;;;7.22;2.63;;;;;;;;;;4898321;29;20171;-71
2021/05/22 06:31:10;;;;;;;11.05;3.10;;;;;;;;;;4898449;29;20512;-70
2021/05/22 06:33:37;;;;;;;7.97;3.00;;;;;;;;;;4898158;29;20097;-61
2021/05/22 06:36:03;;;;;;;7.32;3.00;;;;;;;;;;4898474;29;20425;-68
2021/05/22 06:38:29;;;;;;;5.63;2.58;;;;;;;;;;4898389;29;20040;-68
2021/05/22 06:40:55;;;;;;;6.10;2.60;;;;;;;;;;4898462;29;20036;-71
2021/05/22 06:43:22;;;;;;;8.02;2.60;;;;;;;;;;4898072;29;20115;-69
2021/05/22 06:46:00;;;;;;;6.13;2.60;;;;;;;;;;4898203;29;20128;-68
2021/05/22 06:48:26;;;;;;;6.15;2.63;;;;;;;;;;4897902;29;20036;-70
2021/05/22 06:50:53;;;;;;;7.00;2.72;;;;;;;;;;4897605;29;20049;-68
2021/05/22 06:53:19;;;;;;;5.95;2.97;;;;;;;;;;4897918;29;20047;-67
2021/05/22 06:55:45;;;;;;;6.18;2.83;;;;;;;;;;4898411;29;20112;-69
2021/05/22 06:58:11;;;;;;;4.60;2.40;;;;;;;;;;4897357;29;20088;-61
2021/05/22 07:00:37;;;;;;;9.50;2.55;;;;;;;;;;4897920;29;20536;-67
2021/05/22 07:03:04;;;;;;;8.27;2.67;;;;;;;;;;4897705;29;20036;-64
2021/05/22 07:05:30;;;;;;;6.82;2.58;;;;;;;;;;4897453;29;20056;-65
2021/05/22 07:07:56;;;;;;;3.38;2.30;;;;;;;;;;4897838;29;20062;-64
2021/05/22 07:10:22;;;;;;;7.53;2.53;;;;;;;;;;4897239;29;20116;-66
2021/05/22 07:12:48;;;;;;;4.43;2.30;;;;;;;;;;4896563;29;20039;-65
2021/05/22 07:15:14;;;;;;;4.25;2.30;;;;;;;;;;4897259;29;20088;-69
2021/05/22 07:17:40;;;;;;;8.63;3.22;;;;;;;;;;4897332;29;20043;-67
2021/05/22 07:20:07;;;;;;;9.48;4.18;;;;;;;;;;4897122;29;20020;-61
2021/05/22 07:22:33;;;;;;;8.23;2.92;;;;;;;;;;4880522;29;20033;-68
2021/05/22 07:24:59;;;;;;;10.95;3.10;;;;;;;;;;4896992;29;20025;-64
2021/05/22 07:27:26;;;;;;;11.48;6.22;;;;;;;;;;4897026;29;20044;-65
2021/05/22 07:29:52;;;;;;;8.98;3.20;;;;;;;;;;4897162;29;20029;-66
2021/05/22 07:32:18;;;;;;;6.93;3.75;;;;;;;;;;4897109;29;20036;-69
2021/05/22 07:34:44;;;;;;;9.82;4.90;;;;;;;;;;4897318;29;20025;-61
2021/05/22 07:37:10;;;;;;;6.25;3.40;;;;;;;;;;4897311;29;20037;-64
2021/05/22 07:39:36;;;;;;;6.50;2.42;;;;;;;;;;4897220;29;20469;-66
2021/05/22 07:42:02;;;;;;;6.30;2.30;;;;;;;;;;4896844;29;20451;-67
2021/05/22 07:44:28;;;;;;;4.65;1.90;;;;;;;;;;4896946;29;20021;-66
2021/05/22 07:46:55;;;;;;;5.35;1.92;;;;;;;;;;4896708;29;20041;-62
2021/05/22 07:49:21;;;;;;;4.30;2.35;;;;;;;;;;4897136;29;20084;-69
2021/05/22 07:51:47;;;;;;;9.02;2.35;;;;;;;;;;4896515;29;20049;-69
2021/05/22 07:54:13;;;;;;;4.85;2.28;;;;;;;;;;4896896;29;20373;-62
2021/05/22 07:56:39;;;;;;;4.82;1.92;;;;;;;;;;4896762;29;20040;-66
2021/05/22 07:59:05;;;;;;;5.32;1.98;;;;;;;;;;4896473;29;20088;-65
2021/05/22 08:01:35;;;;;;;4.78;2.00;;;;;;;;;;4896288;29;20044;-61
2021/05/22 08:04:01;;;;;;;3.10;1.95;;;;;;;;;;4896321;29;20366;-68
2021/05/22 08:06:27;;;;;;;4.25;1.85;;;;;;;;;;4879341;29;20068;-70
2021/05/22 08:08:53;;;;;;;5.03;3.10;;;;;;;;;;4896364;29;20083;-66
2021/05/22 08:11:20;;;;;;;4.55;2.10;;;;;;;;;;4895813;29;20028;-67
2021/05/22 08:13:46;;;;;;;5.72;2.30;;;;;;;;;;4896232;29;20437;-69
2021/05/22 08:16:12;;;;;;;7.03;2.58;;;;;;;;;;4896201;29;20120;-68
2021/05/22 08:18:38;;;;;;;7.05;2.20;;;;;;;;;;4896075;29;20040;-73
2021/05/22 08:21:05;;;;;;;10.00;2.63;;;;;;;;;;4895781;29;20123;-70
2021/05/22 08:23:31;;;;;;;12.00;3.00;;;;;;;;;;4895737;29;20108;-70
2021/05/22 08:25:57;;;;;;;11.68;3.90;;;;;;;;;;4896043;29;20127;-64
2021/05/22 08:28:27;;;;;;;43.30;9.43;;;;;;;;;;4895835;29;20028;-59
2021/05/22 08:30:53;;;;;;;5.22;2.22;;;;;;;;;;4896084;29;20120;-60
2021/05/22 08:33:19;;;;;;;6.85;2.13;;;;;;;;;;4896090;29;20028;-60
2021/05/22 08:35:45;;;;;;;6.20;2.42;;;;;;;;;;4896171;29;20115;-61
2021/05/22 08:38:11;;;;;;;5.38;1.58;;;;;;;;;;4896353;29;20044;-64
2021/05/22 08:40:38;;;;;;;3.20;1.55;;;;;;;;;;4896176;29;20043;-59
2021/05/22 08:43:04;;;;;;;6.20;2.63;;;;;;;;;;4896037;29;20418;-60
2021/05/22 08:45:30;;;;;;;4.30;1.70;;;;;;;;;;4895891;29;20029;-66
2021/05/22 08:47:57;;;;;;;16.00;4.38;;;;;;;;;;4895946;29;20140;-63
2021/05/22 08:50:23;;;;;;;12.50;4.05;;;;;;;;;;4895372;29;20063;-65
2021/05/22 08:52:53;;;;;;;3.90;1.80;;;;;;;;;;4896133;29;20084;-66
2021/05/22 08:55:19;;;;;;;3.63;1.38;;;;;;;;;;4896164;29;20028;-66
2021/05/22 08:57:45;;;;;;;4.95;1.92;;;;;;;;;;4895583;29;20076;-60
2021/05/22 09:00:14;;;;;;;2.92;1.30;;;;;;;;;;4895471;29;20036;-60
2021/05/22 09:02:41;;;;;;;7.03;1.50;;;;;;;;;;4895605;29;20040;-66
2021/05/22 09:05:10;;;;;;;3.92;1.50;;;;;;;;;;4895579;29;20029;-67
2021/05/22 09:07:37;;;;;;;4.72;1.60;;;;;;;;;;4895485;29;20048;-73
2021/05/22 09:10:09;;;;;;;3.22;1.63;;;;;;;;;;4895871;29;20068;-70
2021/05/22 09:12:40;;;;;;;5.63;1.60;;;;;;;;;;4895278;29;20027;-61
2021/05/22 09:15:13;;;;;;;3.65;1.63;;;;;;;;;;4894840;29;20112;-68
2021/05/22 09:17:44;;;;;;;3.83;2.08;;;;;;;;;;4895046;29;20032;-70
2021/05/22 09:20:11;;;;;;;5.33;1.70;;;;;;;;;;4893552;29;20083;-66
2021/05/22 09:22:37;;;;;;;3.05;1.77;;;;;;;;;;4895408;29;20032;-64
2021/05/22 09:25:05;;;;;;;5.07;2.10;;;;;;;;;;4877794;29;20040;-59
2021/05/22 09:27:35;;;;;;;3.83;1.50;;;;;;;;;;4895041;29;20068;-60
2021/05/22 09:30:19;;;;;;;3.72;1.60;;;;;;;;;;4895508;29;20029;-68
2021/05/22 09:32:46;;;;;;;4.03;1.70;;;;;;;;;;4895501;29;20039;-60
2021/05/22 09:35:12;;;;;;;5.95;1.95;;;;;;;;;;4897254;29;20024;-60
2021/05/22 09:37:51;;;;;;;7.07;2.70;;;;;;;;;;4899674;29;20025;-71
2021/05/22 09:40:22;;;;;;;4.18;1.73;;;;;;;;;;4899362;29;20473;-68
2021/05/22 09:42:48;;;;;;;4.13;1.60;;;;;;;;;;4899170;29;20036;-64
2021/05/22 09:45:21;;;;;;;5.93;1.98;;;;;;;;;;4898670;29;20107;-67
2021/05/22 09:47:47;;;;;;;3.38;1.60;;;;;;;;;;4898216;29;20047;-60
2021/05/22 09:50:49;;;;;;;4.22;1.73;;;;;;;;;;4898529;29;20485;-66
2021/05/22 09:53:21;;;;;;;3.25;1.15;;;;;;;;;;4840687;29;20050;-71
2021/05/22 09:56:07;;;;;;;5.32;2.85;;;;;;;;;;4840614;29;20078;-68
2021/05/22 09:58:39;;;;;;;4.65;1.85;;;;;;;;;;4840137;29;20030;-62
2021/05/22 10:01:05;;;;;;;3.90;1.73;;;;;;;;;;4840252;29;20042;-65
2021/05/22 10:03:31;;;;;;;2.45;1.58;;;;;;;;;;4823712;29;20038;-62
2021/05/22 10:05:58;;;;;;;4.38;1.27;;;;;;;;;;4840648;29;20121;-64
2021/05/22 10:08:24;;;;;;;3.38;2.47;;;;;;;;;;4840728;29;20703;-59
2021/05/22 10:10:51;;;;;;;4.93;1.75;;;;;;;;;;4839844;29;20033;-66
2021/05/22 10:13:18;;;;;;;3.88;1.48;;;;;;;;;;4840422;29;20049;-59
2021/05/22 10:15:45;;;;;;;2.97;1.63;;;;;;;;;;4839904;29;20054;-62
2021/05/22 10:18:12;;;;;;;4.03;1.40;;;;;;;;;;4840450;29;20057;-61
2021/05/22 10:20:38;;;;;;;5.75;1.33;;;;;;;;;;4839597;29;20034;-72
2021/05/22 10:23:06;;;;;;;6.32;1.48;;;;;;;;;;4839584;29;20045;-65
2021/05/22 10:25:32;;;;;;;3.15;1.58;;;;;;;;;;4840377;29;20022;-68
2021/05/22 10:27:59;;;;;;;3.72;1.20;;;;;;;;;;4887402;29;20068;-69
2021/05/22 10:30:25;;;;;;;2.40;1.23;;;;;;;;;;4897856;29;20032;-63
2021/05/22 10:32:58;;;;;;;1.65;0.90;;;;;;;;;;4897877;29;20021;-67
2021/05/22 10:35:25;;;;;;;2.83;1.50;;;;;;;;;;4898764;29;20032;-68
2021/05/22 10:37:52;;;;;;;2.67;1.40;;;;;;;;;;4897959;29;20370;-68
2021/05/22 10:40:19;;;;;;;3.33;1.15;;;;;;;;;;4897860;29;20477;-74
2021/05/22 10:42:47;;;;;;;3.65;1.70;;;;;;;;;;4898059;29;20028;-71
2021/05/22 10:45:32;;;;;;;3.58;1.30;;;;;;;;;;4897595;29;20388;-72
2021/05/22 10:47:59;;;;;;;3.75;1.33;;;;;;;;;;4897808;29;20039;-71
2021/05/22 10:50:42;;;;;;;2.38;1.17;;;;;;;;;;4897419;29;20024;-65
2021/05/22 10:53:29;;;;;;;2.00;1.10;;;;;;;;;;4881001;29;20041;-72
2021/05/22 10:56:04;;;;;;;4.35;1.15;;;;;;;;;;4880902;29;20123;-73
2021/05/22 10:58:30;;;;;;;1.85;1.20;;;;;;;;;;4897450;29;20037;-73
2021/05/22 11:01:16;;;;;;;3.10;1.58;;;;;;;;;;4897431;29;20056;-71
2021/05/22 11:04:02;;;;;;;4.97;2.10;;;;;;;;;;4897394;29;20128;-72
2021/05/22 11:06:40;;;;;;;3.88;2.65;;;;;;;;;;4897339;29;20029;-69
2021/05/22 11:09:30;;;;;;;4.10;1.77;;;;;;;;;;4897339;29;20032;-61
2021/05/22 11:11:57;;;;;;;4.32;1.75;;;;;;;;;;4897213;29;20037;-66
2021/05/22 11:14:40;;;;;;;5.80;1.63;;;;;;;;;;4896547;29;20105;-65
2021/05/22 11:17:28;;;;;;;4.90;1.75;;;;;;;;;;4897377;29;20024;-62
2021/05/22 11:19:57;;;;;;;3.70;1.70;;;;;;;;;;4897206;29;20017;-61
2021/05/22 11:22:44;;;;;;;4.68;1.80;;;;;;;;;;4897301;29;20142;-60
2021/05/22 11:25:11;;;;;;;3.33;1.90;;;;;;;;;;4897537;29;20060;-70
2021/05/22 11:27:53;;;;;;;4.75;2.00;;;;;;;;;;4897286;29;20099;-66
2021/05/22 11:30:43;;;;;;;2.80;1.50;;;;;;;;;;4897111;29;20035;-69
2021/05/22 11:33:10;;;;;;;3.40;1.60;;;;;;;;;;4897259;29;20024;-69
2021/05/22 11:35:37;;;;;;;4.50;1.67;;;;;;;;;;4897224;29;20036;-68
2021/05/22 11:38:12;;;;;;;4.47;1.88;;;;;;;;;;4896934;29;20029;-73
2021/05/22 11:40:38;;;;;;;3.38;2.20;;;;;;;;;;4897058;29;20036;-71
2021/05/22 11:45:59;;;;;;;3.13;1.83;;;;;;;;;;4896851;29;20397;-68
2021/05/22 11:48:33;;;;;;;2.95;1.77;;;;;;;;;;4896948;29;20040;-73
2021/05/22 11:50:59;;;;;;;3.60;1.52;;;;;;;;;;4896409;29;20049;-71
2021/05/22 11:53:26;;;;;;;3.83;1.60;;;;;;;;;;4896819;29;20081;-72
2021/05/22 11:56:10;;;;;;;3.65;1.77;;;;;;;;;;4896991;29;20077;-72
2021/05/22 11:58:39;;;;;;;4.15;2.00;;;;;;;;;;4896080;29;20028;-73
2021/05/22 12:01:09;;;;;;;2.78;1.50;;;;;;;;;;4896355;29;20025;-71
2021/05/22 12:03:37;;;;;;;4.72;1.70;;;;;;;;;;4896423;29;20052;-73
2021/05/22 12:06:03;;;;;;;3.20;1.35;;;;;;;;;;4896264;29;20029;-73
2021/05/22 12:08:31;;;;;;;5.50;1.60;;;;;;;;;;4896771;29;20072;-71
2021/05/22 12:10:57;;;;;;;3.50;1.60;;;;;;;;;;4896819;29;20473;-73
2021/05/22 12:13:24;;;;;;;2.58;1.42;;;;;;;;;;4896423;29;20075;-73
2021/05/22 12:15:50;;;;;;;3.40;1.52;;;;;;;;;;4896291;29;20024;-69
2021/05/22 12:18:17;;;;;;;4.30;1.42;;;;;;;;;;4895689;29;20051;-66
2021/05/22 12:20:49;;;;;;;3.63;1.40;;;;;;;;;;4878667;29;20051;-74
2021/05/22 12:23:15;;;;;;;;;;;;;;;;;;4896630;29;20040;-72
2021/05/22 12:25:41;;;;;;;4.00;1.35;;;;;;;;;;4896166;29;19912;-74
2021/05/22 12:28:07;;;;;;;2.65;1.33;;;;;;;;;;4896261;29;20048;-74
2021/05/22 12:30:33;;;;;;;4.53;1.52;;;;;;;;;;4896145;29;20112;-73
2021/05/22 12:33:11;;;;;;;3.92;1.70;;;;;;;;;;4896039;29;20028;-68
2021/05/22 12:35:38;;;;;;;1.52;0.75;;;;;;;;;;4896075;29;20020;-71
2021/05/22 12:38:04;;;;;;;2.55;1.00;;;;;;;;;;4895892;29;20036;-69
2021/05/22 12:40:43;;;;;;;2.00;1.30;;;;;;;;;;4896009;29;20028;-73
2021/05/22 12:43:09;;;;;;;3.15;1.08;;;;;;;;;;4896043;29;20021;-65
2021/05/22 12:45:36;;;;;;;2.90;1.45;;;;;;;;;;4895607;29;20040;-73
2021/05/22 12:48:02;;;;;;;3.80;1.38;;;;;;;;;;4895741;29;20389;-74
2021/05/22 12:50:32;;;;;;;2.72;1.10;;;;;;;;;;4895384;29;20028;-71
2021/05/22 12:52:59;;;;;;;1.90;1.00;;;;;;;;;;4895703;29;20069;-73
2021/05/22 12:55:29;;;;;;;4.65;1.30;;;;;;;;;;4895710;29;20039;-68
2021/05/22 12:57:59;;;;;;;4.93;1.48;;;;;;;;;;4895549;29;20067;-73
2021/05/22 13:00:29;;;;;;;4.15;1.80;;;;;;;;;;4895835;29;20024;-72
2021/05/22 13:02:56;;;;;;;4.13;1.42;;;;;;;;;;4895532;29;20132;-73
2021/05/22 13:05:28;;;;;;;4.68;1.60;;;;;;;;;;4895332;29;20451;-72
2021/05/22 13:08:01;;;;;;;2.00;1.33;;;;;;;;;;4895929;29;20104;-72
2021/05/22 13:10:28;;;;;;;2.78;1.30;;;;;;;;;;4895806;29;20025;-72
2021/05/22 13:12:57;;;;;;;3.33;1.40;;;;;;;;;;4878916;29;20027;-72
2021/05/22 13:15:24;;;;;;;4.95;1.67;;;;;;;;;;4895439;29;20476;-72
2021/05/22 13:17:52;;;;;;;3.58;1.70;;;;;;;;;;4895620;29;20040;-68
2021/05/22 13:20:20;;;;;;;4.18;1.98;;;;;;;;;;4895200;29;20033;-73
2021/05/22 13:22:46;;;;;;;6.53;1.70;;;;;;;;;;4895161;29;20032;-72
2021/05/22 13:25:14;;;;;;;2.90;1.40;;;;;;;;;;4895138;29;20107;-72
2021/05/22 13:28:01;;;;;;;5.65;2.75;;;;;;;;;;4895376;29;20045;-72
2021/05/22 13:30:31;;;;;;;2.95;1.52;;;;;;;;;;4895606;29;20396;-68
2021/05/22 13:32:58;;;;;;;3.15;1.40;;;;;;;;;;4895298;29;20028;-78
2021/05/22 13:35:26;;;;;;;2.65;1.55;;;;;;;;;;4895368;29;20037;-68
2021/05/22 13:37:52;;;;;;;7.18;2.38;;;;;;;;;;4895526;29;20067;-72
2021/05/22 13:40:18;;;;;;;3.92;2.38;;;;;;;;;;4895186;29;20029;-72
2021/05/22 13:42:45;;;;;;;11.23;5.10;;;;;;;;;;4895344;29;20028;-66
2021/05/22 13:45:11;;;;;;;10.40;5.13;;;;;;;;;;4895385;29;20054;-61
2021/05/22 13:47:37;;;;;;;11.23;5.07;;;;;;;;;;4895438;29;20068;-63
2021/05/22 13:50:07;;;;;;;5.85;3.10;;;;;;;;;;4894983;29;20544;-61
2021/05/22 13:52:33;;;;;;;10.88;6.15;;;;;;;;;;4895061;29;20076;-61
2021/05/22 13:54:59;;;;;;;11.75;6.93;;;;;;;;;;4895041;29;20112;-63
2021/05/22 13:57:25;;;;;;;11.57;6.30;;;;;;;;;;4895138;29;20120;-65
2021/05/22 13:59:51;;;;;;;5.00;3.05;;;;;;;;;;4895276;29;20043;-65
2021/05/22 14:02:17;;;;;;;2.03;1.25;;;;;;;;;;4894849;29;20084;-65
2021/05/22 14:04:43;;;;;;;4.00;1.95;;;;;;;;;;4894721;29;20029;-62
2021/05/22 14:07:10;;;;;;;9.15;4.47;;;;;;;;;;4895323;29;20043;-71
2021/05/22 14:09:36;;;;;;;6.70;3.45;;;;;;;;;;4894685;29;20056;-62
2021/05/22 14:12:02;;;;;;;3.92;2.78;;;;;;;;;;4891915;29;20039;-73
2021/05/22 14:14:28;;;;;;;4.97;2.00;;;;;;;;;;4889877;29;20025;-62
2021/05/22 14:16:54;;;;;;;5.13;2.63;;;;;;;;;;4891415;29;20039;-64
2021/05/22 14:19:20;;;;;;;5.93;2.58;;;;;;;;;;4889402;29;20103;-70
2021/05/22 14:21:46;;;;;;;6.75;2.25;;;;;;;;;;4895358;29;20032;-65
2021/05/22 14:24:12;;;;;;;8.88;2.42;;;;;;;;;;4898018;29;20057;-68
2021/05/22 14:26:38;;;;;;;7.80;4.03;;;;;;;;;;4897935;29;20059;-62
2021/05/22 14:29:05;;;;;;;5.00;2.47;;;;;;;;;;4897405;29;20095;-74
2021/05/22 14:31:31;;;;;;;5.72;3.88;;;;;;;;;;4897690;29;20211;-62
2021/05/22 14:33:57;;;;;;;6.47;3.70;;;;;;;;;;4897336;29;20025;-61
2021/05/22 14:36:23;;;;;;;3.13;1.90;;;;;;;;;;4897696;29;20029;-62
2021/05/22 14:38:49;;;;;;;14.43;6.28;;;;;;;;;;4898220;29;20021;-65
2021/05/22 14:41:15;;;;;;;5.78;3.30;;;;;;;;;;4880480;29;20497;-69
2021/05/22 14:43:41;;;;;;;7.72;2.33;;;;;;;;;;4897973;29;20069;-62
2021/05/22 14:46:08;;;;;;;9.18;4.40;;;;;;;;;;4897518;29;20103;-62
2021/05/22 14:48:35;;;;;;;9.07;5.75;;;;;;;;;;4894726;29;20025;-62
2021/05/22 14:51:01;;;;;;;6.45;4.07;;;;;;;;;;4889326;29;20603;-61